This is the latest recevied weather packets stored in our database for station/object JH0FOG-13. If no packets are shown the sender has not sent any weather packets the latest 10 day(s).
| Time | Temp. | Humidity | Pressure | Rain* | Wind** | Luminosity | Snow |
|---|---|---|---|---|---|---|---|
| 1777526402 | 20° C | 46% | 1017.2 hPa | 0 mm | - | - | - |
| 1777525203 | 20° C | 45% | 1017.3 hPa | 0 mm | - | - | - |
| 1777524002 | 20° C | 43% | 1017.7 hPa | 0 mm | - | - | - |
| 1777522803 | 20° C | 43% | 1017.7 hPa | 0 mm | - | - | - |
| 1777521602 | 19.44° C | 44% | 1018 hPa | 0 mm | - | - | - |
| 1777520402 | 19.44° C | 41% | 1018.2 hPa | 0 mm | - | - | - |
| 1777519202 | 18.89° C | 42% | 1018.3 hPa | 0 mm | - | - | - |
| 1777518002 | 18.89° C | 44% | 1018.7 hPa | 0 mm | - | - | - |
| 1777516802 | 18.33° C | 47% | 1019 hPa | 0 mm | - | - | - |
| 1777515603 | 17.22° C | 50% | 1019.6 hPa | 0 mm | - | - | - |
| 1777514403 | 16.67° C | 54% | 1019.7 hPa | 0 mm | - | - | - |
| 1777513203 | 16.67° C | 56% | 1019.7 hPa | 0 mm | - | - | - |
| 1777512003 | 16.11° C | 58% | 1020.1 hPa | 0 mm | - | - | - |
| 1777510803 | 15.56° C | 63% | 1020.6 hPa | 0 mm | - | - | - |
| 1777509603 | 14.44° C | 69% | 1020.7 hPa | 0 mm | - | - | - |
| 1777508403 | 12.78° C | 74% | 1020.7 hPa | 0 mm | - | - | - |
| 1777507202 | 12.22° C | 78% | 1020.6 hPa | 0 mm | - | - | - |
| 1777506003 | 11.67° C | 78% | 1020.7 hPa | 0 mm | - | - | - |
| 1777504803 | 11.11° C | 80% | 1020.7 hPa | 0 mm | - | - | - |
| 1777503603 | 10.56° C | 82% | 1020.6 hPa | 0 mm | - | - | - |
| 1777502403 | 10° C | 85% | 1020.9 hPa | 0 mm | - | - | - |
| 1777501202 | 9.44° C | 88% | 1020.9 hPa | 0 mm | - | - | - |
| 1777500003 | 8.33° C | 90% | 1021 hPa | 0 mm | - | - | - |
| 1777498802 | 7.78° C | 91% | 1021 hPa | 0 mm | - | - | - |
| 1777497602 | 7.22° C | 92% | 1021 hPa | 0 mm | - | - | - |
* Rain latest hour (hover to see other rain measurements)
** Current wind speed in m/s (hover to see current wind gust speed)